North Manheim, Pennsylvania
Current Conditions -  °F | °C
As of 10:58 PM on Monday 22 Dec 2014 (Local Time) from KMUI Reporting Station
Haze Haze  
Wind Chill:   Ceiling: 600
Heat Index:   Visibility: 3mi
Dew Point:   Wind: 3mph
Humidity: 97%   Direction: 40°NE
Pressure: 30.12"   Gusts: NA
Location:  40.6882°N, 76.264°W
Report Text: KMUI 230358Z AUTO 04003KT 3SM BR OVC006 03/02 A3012 RMK AO2 UPE0301RAB0331E0340DZB0301E0323B0340E0349 SLP207 P0002 T00250021
Loading
Personal Weather Stations






























Interactive Weather Map New forecast layout! Learn more

10-Day Weather Forecast

Advertisements
Track Severe Weather on mobile